Matsuyama, Japan
Current Conditions -  °F | °C
As of 1:00 PM on Tuesday 23 Dec 2014 (Local Time) from RJOM Reporting Station
Broken Clouds Broken Clouds  
Wind Chill: 50°   Ceiling: Unl
Heat Index: 50°   Visibility: 6mi
Dew Point: 30°   Wind: 7mph
Humidity: 47%   Direction: 270°W
Pressure: 30.27"   Gusts: NA
Location:  33.84°N, 132.77°E
Report Text: RJOM 230400Z 27006KT 220V300 9999 FEW030 SCT045 BKN/// 10/M01 Q1025
Loading
Personal Weather Stations






























Interactive Weather Map New forecast layout! Learn more

10-Day Weather Forecast

Advertisements
Track Severe Weather on mobile